sensor_id;sensor_type;location;lat;lon;timestamp;P1;durP1;ratioP1;P2;durP2;ratioP2
10529;SDS011;5313;48.834;9.228;2022-09-09T00:00:24;4.90;;;1.80;;
10529;SDS011;5313;48.834;9.228;2022-09-09T00:05:28;5.80;;;2.40;;
10529;SDS011;5313;48.834;9.228;2022-09-09T00:07:59;4.83;;;2.30;;
10529;SDS011;5313;48.834;9.228;2022-09-09T00:10:37;5.97;;;2.20;;
10529;SDS011;5313;48.834;9.228;2022-09-09T00:13:24;5.63;;;2.30;;
10529;SDS011;5313;48.834;9.228;2022-09-09T00:16:00;5.13;;;2.30;;
10529;SDS011;5313;48.834;9.228;2022-09-09T00:21:05;4.40;;;2.03;;
10529;SDS011;5313;48.834;9.228;2022-09-09T00:23:43;6.30;;;2.20;;
10529;SDS011;5313;48.834;9.228;2022-09-09T00:28:48;5.67;;;2.20;;
10529;SDS011;5313;48.834;9.228;2022-09-09T00:31:23;5.67;;;2.50;;
10529;SDS011;5313;48.834;9.228;2022-09-09T00:33:53;6.07;;;2.73;;
10529;SDS011;5313;48.834;9.228;2022-09-09T00:36:23;6.90;;;2.10;;
10529;SDS011;5313;48.834;9.228;2022-09-09T00:38:52;5.37;;;2.10;;
10529;SDS011;5313;48.834;9.228;2022-09-09T00:41:31;3.20;;;1.80;;
10529;SDS011;5313;48.834;9.228;2022-09-09T00:44:03;4.67;;;1.80;;
10529;SDS011;5313;48.834;9.228;2022-09-09T00:49:51;5.93;;;2.20;;
10529;SDS011;5313;48.834;9.228;2022-09-09T00:52:53;6.37;;;1.83;;
10529;SDS011;5313;48.834;9.228;2022-09-09T00:55:26;4.60;;;2.20;;
10529;SDS011;5313;48.834;9.228;2022-09-09T00:58:06;4.17;;;2.00;;
10529;SDS011;5313;48.834;9.228;2022-09-09T01:00:35;6.60;;;2.30;;
10529;SDS011;5313;48.834;9.228;2022-09-09T01:08:48;4.07;;;1.97;;
10529;SDS011;5313;48.834;9.228;2022-09-09T01:11:45;5.23;;;2.00;;
10529;SDS011;5313;48.834;9.228;2022-09-09T01:17:15;8.33;;;2.60;;
10529;SDS011;5313;48.834;9.228;2022-09-09T01:28:14;4.60;;;1.70;;
10529;SDS011;5313;48.834;9.228;2022-09-09T01:30:43;6.67;;;1.87;;
10529;SDS011;5313;48.834;9.228;2022-09-09T01:33:16;2.73;;;1.53;;
10529;SDS011;5313;48.834;9.228;2022-09-09T01:35:50;5.03;;;1.43;;
10529;SDS011;5313;48.834;9.228;2022-09-09T01:38:20;2.33;;;1.43;;
10529;SDS011;5313;48.834;9.228;2022-09-09T01:40:47;2.93;;;1.33;;
10529;SDS011;5313;48.834;9.228;2022-09-09T01:43:13;4.83;;;1.60;;
10529;SDS011;5313;48.834;9.228;2022-09-09T01:45:39;3.57;;;1.40;;
10529;SDS011;5313;48.834;9.228;2022-09-09T01:48:07;3.13;;;1.40;;
10529;SDS011;5313;48.834;9.228;2022-09-09T01:50:33;2.80;;;1.60;;
10529;SDS011;5313;48.834;9.228;2022-09-09T01:52:59;4.27;;;1.90;;
10529;SDS011;5313;48.834;9.228;2022-09-09T01:55:28;3.90;;;1.47;;
10529;SDS011;5313;48.834;9.228;2022-09-09T01:58:17;3.30;;;1.50;;
10529;SDS011;5313;48.834;9.228;2022-09-09T02:01:00;4.27;;;1.77;;
10529;SDS011;5313;48.834;9.228;2022-09-09T02:03:49;2.93;;;1.73;;
10529;SDS011;5313;48.834;9.228;2022-09-09T02:06:30;6.20;;;1.60;;
10529;SDS011;5313;48.834;9.228;2022-09-09T02:09:04;3.30;;;1.70;;
10529;SDS011;5313;48.834;9.228;2022-09-09T02:11:32;3.03;;;1.80;;
10529;SDS011;5313;48.834;9.228;2022-09-09T02:14:03;6.80;;;2.10;;
10529;SDS011;5313;48.834;9.228;2022-09-09T02:16:38;3.03;;;1.33;;
10529;SDS011;5313;48.834;9.228;2022-09-09T02:19:09;3.13;;;1.53;;
10529;SDS011;5313;48.834;9.228;2022-09-09T02:21:43;2.70;;;1.30;;
10529;SDS011;5313;48.834;9.228;2022-09-09T02:24:10;2.07;;;1.33;;
10529;SDS011;5313;48.834;9.228;2022-09-09T02:26:40;3.70;;;1.43;;
10529;SDS011;5313;48.834;9.228;2022-09-09T02:29:11;3.77;;;1.47;;
10529;SDS011;5313;48.834;9.228;2022-09-09T02:31:41;2.40;;;1.33;;
10529;SDS011;5313;48.834;9.228;2022-09-09T02:34:09;3.27;;;1.60;;
10529;SDS011;5313;48.834;9.228;2022-09-09T02:36:36;3.97;;;1.70;;
10529;SDS011;5313;48.834;9.228;2022-09-09T02:39:05;2.87;;;1.57;;
10529;SDS011;5313;48.834;9.228;2022-09-09T02:41:34;3.53;;;1.40;;
10529;SDS011;5313;48.834;9.228;2022-09-09T02:44:01;2.67;;;1.67;;
10529;SDS011;5313;48.834;9.228;2022-09-09T02:46:32;3.97;;;1.43;;
10529;SDS011;5313;48.834;9.228;2022-09-09T02:49:10;4.47;;;1.63;;
10529;SDS011;5313;48.834;9.228;2022-09-09T02:52:18;6.30;;;1.73;;
10529;SDS011;5313;48.834;9.228;2022-09-09T02:54:41;5.90;;;2.20;;
10529;SDS011;5313;48.834;9.228;2022-09-09T02:57:19;3.50;;;1.70;;
10529;SDS011;5313;48.834;9.228;2022-09-09T02:59:50;2.43;;;1.57;;
10529;SDS011;5313;48.834;9.228;2022-09-09T03:02:17;4.80;;;1.90;;
10529;SDS011;5313;48.834;9.228;2022-09-09T03:04:43;2.43;;;1.47;;
10529;SDS011;5313;48.834;9.228;2022-09-09T03:07:09;2.40;;;1.60;;
10529;SDS011;5313;48.834;9.228;2022-09-09T03:09:38;2.10;;;1.33;;
10529;SDS011;5313;48.834;9.228;2022-09-09T03:12:03;2.63;;;1.40;;
10529;SDS011;5313;48.834;9.228;2022-09-09T03:14:29;4.00;;;1.50;;
10529;SDS011;5313;48.834;9.228;2022-09-09T03:16:55;3.93;;;1.50;;
10529;SDS011;5313;48.834;9.228;2022-09-09T03:19:22;3.97;;;1.63;;
10529;SDS011;5313;48.834;9.228;2022-09-09T03:21:49;3.60;;;1.60;;
10529;SDS011;5313;48.834;9.228;2022-09-09T03:24:15;3.47;;;1.50;;
10529;SDS011;5313;48.834;9.228;2022-09-09T03:26:41;5.60;;;1.70;;
10529;SDS011;5313;48.834;9.228;2022-09-09T03:29:09;3.10;;;1.50;;
10529;SDS011;5313;48.834;9.228;2022-09-09T03:31:37;3.27;;;1.83;;
10529;SDS011;5313;48.834;9.228;2022-09-09T03:34:03;4.53;;;1.53;;
10529;SDS011;5313;48.834;9.228;2022-09-09T03:36:29;4.37;;;1.20;;
10529;SDS011;5313;48.834;9.228;2022-09-09T03:38:55;6.30;;;1.60;;
10529;SDS011;5313;48.834;9.228;2022-09-09T03:41:21;4.00;;;1.37;;
10529;SDS011;5313;48.834;9.228;2022-09-09T03:43:49;2.70;;;1.27;;
10529;SDS011;5313;48.834;9.228;2022-09-09T03:46:17;1.80;;;1.07;;
10529;SDS011;5313;48.834;9.228;2022-09-09T03:48:43;3.57;;;1.60;;
10529;SDS011;5313;48.834;9.228;2022-09-09T03:51:09;3.10;;;1.33;;
10529;SDS011;5313;48.834;9.228;2022-09-09T03:53:35;3.20;;;1.30;;
10529;SDS011;5313;48.834;9.228;2022-09-09T03:56:03;3.67;;;1.70;;
10529;SDS011;5313;48.834;9.228;2022-09-09T03:58:31;5.40;;;1.50;;
10529;SDS011;5313;48.834;9.228;2022-09-09T04:00:59;4.80;;;1.77;;
10529;SDS011;5313;48.834;9.228;2022-09-09T04:03:27;2.87;;;1.50;;
10529;SDS011;5313;48.834;9.228;2022-09-09T04:05:53;4.33;;;1.37;;
10529;SDS011;5313;48.834;9.228;2022-09-09T04:08:20;4.23;;;1.17;;
10529;SDS011;5313;48.834;9.228;2022-09-09T04:10:47;2.73;;;1.37;;
10529;SDS011;5313;48.834;9.228;2022-09-09T04:13:13;1.97;;;1.10;;
10529;SDS011;5313;48.834;9.228;2022-09-09T04:15:41;3.70;;;1.43;;
10529;SDS011;5313;48.834;9.228;2022-09-09T04:18:07;3.87;;;1.40;;
10529;SDS011;5313;48.834;9.228;2022-09-09T04:20:33;3.47;;;1.30;;
10529;SDS011;5313;48.834;9.228;2022-09-09T04:22:58;3.37;;;1.20;;
10529;SDS011;5313;48.834;9.228;2022-09-09T04:25:24;2.57;;;1.20;;
10529;SDS011;5313;48.834;9.228;2022-09-09T04:27:53;4.73;;;1.40;;
10529;SDS011;5313;48.834;9.228;2022-09-09T04:30:19;2.70;;;1.33;;
10529;SDS011;5313;48.834;9.228;2022-09-09T04:32:46;3.40;;;1.50;;
10529;SDS011;5313;48.834;9.228;2022-09-09T04:35:11;2.47;;;1.30;;
10529;SDS011;5313;48.834;9.228;2022-09-09T04:37:37;2.00;;;1.13;;
10529;SDS011;5313;48.834;9.228;2022-09-09T04:40:02;3.43;;;1.10;;
10529;SDS011;5313;48.834;9.228;2022-09-09T04:42:28;3.63;;;1.40;;
10529;SDS011;5313;48.834;9.228;2022-09-09T04:44:54;3.50;;;1.20;;
10529;SDS011;5313;48.834;9.228;2022-09-09T04:47:19;2.17;;;1.23;;
10529;SDS011;5313;48.834;9.228;2022-09-09T04:49:45;4.13;;;1.33;;
10529;SDS011;5313;48.834;9.228;2022-09-09T04:52:10;2.40;;;1.33;;
10529;SDS011;5313;48.834;9.228;2022-09-09T04:54:36;4.47;;;1.20;;
10529;SDS011;5313;48.834;9.228;2022-09-09T04:57:02;4.07;;;1.13;;
10529;SDS011;5313;48.834;9.228;2022-09-09T04:59:27;2.57;;;1.30;;
10529;SDS011;5313;48.834;9.228;2022-09-09T05:01:53;2.23;;;1.30;;
10529;SDS011;5313;48.834;9.228;2022-09-09T05:04:20;4.67;;;1.43;;
10529;SDS011;5313;48.834;9.228;2022-09-09T05:06:46;3.90;;;1.43;;
10529;SDS011;5313;48.834;9.228;2022-09-09T05:09:11;5.37;;;1.63;;
10529;SDS011;5313;48.834;9.228;2022-09-09T05:11:37;6.60;;;1.30;;
10529;SDS011;5313;48.834;9.228;2022-09-09T05:14:03;3.43;;;1.50;;
10529;SDS011;5313;48.834;9.228;2022-09-09T05:16:29;3.13;;;1.30;;
10529;SDS011;5313;48.834;9.228;2022-09-09T05:18:55;2.73;;;1.47;;
10529;SDS011;5313;48.834;9.228;2022-09-09T05:21:21;4.13;;;1.30;;
10529;SDS011;5313;48.834;9.228;2022-09-09T05:23:48;2.80;;;1.40;;
10529;SDS011;5313;48.834;9.228;2022-09-09T05:26:16;3.83;;;1.90;;
10529;SDS011;5313;48.834;9.228;2022-09-09T05:28:47;4.10;;;1.50;;
10529;SDS011;5313;48.834;9.228;2022-09-09T05:31:13;3.37;;;1.67;;
10529;SDS011;5313;48.834;9.228;2022-09-09T05:33:40;4.77;;;1.30;;
10529;SDS011;5313;48.834;9.228;2022-09-09T05:36:08;4.57;;;2.00;;
10529;SDS011;5313;48.834;9.228;2022-09-09T05:38:38;3.53;;;1.80;;
10529;SDS011;5313;48.834;9.228;2022-09-09T05:41:04;4.00;;;1.60;;
10529;SDS011;5313;48.834;9.228;2022-09-09T05:43:30;5.60;;;1.63;;
10529;SDS011;5313;48.834;9.228;2022-09-09T05:46:07;3.63;;;1.33;;
10529;SDS011;5313;48.834;9.228;2022-09-09T05:48:35;3.33;;;1.40;;
10529;SDS011;5313;48.834;9.228;2022-09-09T05:51:02;3.80;;;1.50;;
10529;SDS011;5313;48.834;9.228;2022-09-09T05:53:31;2.07;;;1.23;;
10529;SDS011;5313;48.834;9.228;2022-09-09T05:56:06;3.53;;;1.13;;
10529;SDS011;5313;48.834;9.228;2022-09-09T05:58:36;6.43;;;2.03;;
10529;SDS011;5313;48.834;9.228;2022-09-09T06:01:05;4.67;;;1.50;;
10529;SDS011;5313;48.834;9.228;2022-09-09T06:03:43;3.67;;;1.40;;
10529;SDS011;5313;48.834;9.228;2022-09-09T06:06:10;3.97;;;1.40;;
10529;SDS011;5313;48.834;9.228;2022-09-09T06:08:38;3.30;;;1.37;;
10529;SDS011;5313;48.834;9.228;2022-09-09T06:11:39;3.47;;;1.47;;
10529;SDS011;5313;48.834;9.228;2022-09-09T06:13:57;3.67;;;1.40;;
10529;SDS011;5313;48.834;9.228;2022-09-09T06:16:24;2.60;;;1.53;;
10529;SDS011;5313;48.834;9.228;2022-09-09T06:18:52;3.60;;;1.53;;
10529;SDS011;5313;48.834;9.228;2022-09-09T06:21:23;5.33;;;1.60;;
10529;SDS011;5313;48.834;9.228;2022-09-09T06:23:53;5.27;;;1.53;;
10529;SDS011;5313;48.834;9.228;2022-09-09T06:26:19;2.67;;;1.30;;
10529;SDS011;5313;48.834;9.228;2022-09-09T06:28:48;6.50;;;1.57;;
10529;SDS011;5313;48.834;9.228;2022-09-09T06:31:15;2.83;;;1.60;;
10529;SDS011;5313;48.834;9.228;2022-09-09T06:33:42;3.77;;;1.10;;
10529;SDS011;5313;48.834;9.228;2022-09-09T06:36:13;2.93;;;1.23;;
10529;SDS011;5313;48.834;9.228;2022-09-09T06:38:40;3.07;;;1.40;;
10529;SDS011;5313;48.834;9.228;2022-09-09T06:41:07;3.23;;;1.43;;
10529;SDS011;5313;48.834;9.228;2022-09-09T06:43:33;4.40;;;1.23;;
10529;SDS011;5313;48.834;9.228;2022-09-09T06:46:10;2.87;;;1.50;;
10529;SDS011;5313;48.834;9.228;2022-09-09T06:48:41;7.10;;;1.40;;
10529;SDS011;5313;48.834;9.228;2022-09-09T06:51:08;5.07;;;1.40;;
10529;SDS011;5313;48.834;9.228;2022-09-09T06:53:36;4.90;;;1.30;;
10529;SDS011;5313;48.834;9.228;2022-09-09T06:56:17;1.97;;;1.13;;
10529;SDS011;5313;48.834;9.228;2022-09-09T06:58:45;4.63;;;1.57;;
10529;SDS011;5313;48.834;9.228;2022-09-09T07:01:12;5.37;;;1.43;;
10529;SDS011;5313;48.834;9.228;2022-09-09T07:03:39;4.93;;;1.23;;
10529;SDS011;5313;48.834;9.228;2022-09-09T07:06:06;2.37;;;1.27;;
10529;SDS011;5313;48.834;9.228;2022-09-09T07:08:32;5.97;;;1.50;;
10529;SDS011;5313;48.834;9.228;2022-09-09T07:11:05;4.20;;;1.60;;
10529;SDS011;5313;48.834;9.228;2022-09-09T07:13:32;5.03;;;1.80;;
10529;SDS011;5313;48.834;9.228;2022-09-09T07:16:09;5.37;;;1.50;;
10529;SDS011;5313;48.834;9.228;2022-09-09T07:18:36;3.90;;;1.43;;
10529;SDS011;5313;48.834;9.228;2022-09-09T07:21:02;5.17;;;1.93;;
10529;SDS011;5313;48.834;9.228;2022-09-09T07:23:28;5.40;;;1.60;;
10529;SDS011;5313;48.834;9.228;2022-09-09T07:25:55;3.30;;;1.50;;
10529;SDS011;5313;48.834;9.228;2022-09-09T07:28:21;4.37;;;1.50;;
10529;SDS011;5313;48.834;9.228;2022-09-09T07:30:57;5.70;;;1.43;;
10529;SDS011;5313;48.834;9.228;2022-09-09T07:33:24;4.87;;;1.50;;
10529;SDS011;5313;48.834;9.228;2022-09-09T07:35:51;4.00;;;1.50;;
10529;SDS011;5313;48.834;9.228;2022-09-09T07:38:17;4.73;;;1.30;;
10529;SDS011;5313;48.834;9.228;2022-09-09T07:40:43;2.17;;;1.30;;
10529;SDS011;5313;48.834;9.228;2022-09-09T07:43:09;2.17;;;1.30;;
10529;SDS011;5313;48.834;9.228;2022-09-09T07:45:35;4.23;;;1.30;;
10529;SDS011;5313;48.834;9.228;2022-09-09T07:48:01;3.60;;;1.47;;
10529;SDS011;5313;48.834;9.228;2022-09-09T07:50:28;4.03;;;1.47;;
10529;SDS011;5313;48.834;9.228;2022-09-09T07:52:53;3.00;;;1.13;;
10529;SDS011;5313;48.834;9.228;2022-09-09T07:55:20;3.70;;;1.10;;
10529;SDS011;5313;48.834;9.228;2022-09-09T07:57:46;2.23;;;1.20;;
10529;SDS011;5313;48.834;9.228;2022-09-09T08:00:12;3.30;;;1.20;;
10529;SDS011;5313;48.834;9.228;2022-09-09T08:02:39;2.33;;;1.17;;
10529;SDS011;5313;48.834;9.228;2022-09-09T08:05:05;1.67;;;0.90;;
10529;SDS011;5313;48.834;9.228;2022-09-09T08:07:31;4.47;;;1.17;;
10529;SDS011;5313;48.834;9.228;2022-09-09T08:09:57;2.60;;;0.90;;
10529;SDS011;5313;48.834;9.228;2022-09-09T08:12:22;2.10;;;1.00;;
10529;SDS011;5313;48.834;9.228;2022-09-09T08:14:48;4.67;;;1.20;;
10529;SDS011;5313;48.834;9.228;2022-09-09T08:17:14;2.83;;;1.20;;
10529;SDS011;5313;48.834;9.228;2022-09-09T08:19:39;4.67;;;1.30;;
10529;SDS011;5313;48.834;9.228;2022-09-09T08:22:05;3.73;;;1.50;;
10529;SDS011;5313;48.834;9.228;2022-09-09T08:24:30;7.57;;;1.50;;
10529;SDS011;5313;48.834;9.228;2022-09-09T08:26:56;2.47;;;1.20;;
10529;SDS011;5313;48.834;9.228;2022-09-09T08:29:21;1.97;;;0.93;;
10529;SDS011;5313;48.834;9.228;2022-09-09T08:31:51;5.40;;;1.17;;
10529;SDS011;5313;48.834;9.228;2022-09-09T08:34:22;3.50;;;1.53;;
10529;SDS011;5313;48.834;9.228;2022-09-09T08:36:49;3.17;;;1.00;;
10529;SDS011;5313;48.834;9.228;2022-09-09T08:39:16;3.83;;;1.30;;
10529;SDS011;5313;48.834;9.228;2022-09-09T08:44:34;4.73;;;1.57;;
10529;SDS011;5313;48.834;9.228;2022-09-09T08:47:31;4.33;;;1.10;;
10529;SDS011;5313;48.834;9.228;2022-09-09T08:55:51;3.67;;;1.00;;
10529;SDS011;5313;48.834;9.228;2022-09-09T08:58:29;3.30;;;0.90;;
10529;SDS011;5313;48.834;9.228;2022-09-09T09:01:33;1.67;;;0.80;;
10529;SDS011;5313;48.834;9.228;2022-09-09T09:04:00;3.30;;;0.90;;
10529;SDS011;5313;48.834;9.228;2022-09-09T09:11:58;3.87;;;1.00;;
10529;SDS011;5313;48.834;9.228;2022-09-09T09:14:27;2.43;;;0.90;;
10529;SDS011;5313;48.834;9.228;2022-09-09T09:16:59;5.17;;;0.80;;
10529;SDS011;5313;48.834;9.228;2022-09-09T09:19:27;3.70;;;0.80;;
10529;SDS011;5313;48.834;9.228;2022-09-09T09:24:56;3.17;;;1.20;;
10529;SDS011;5313;48.834;9.228;2022-09-09T09:30:55;4.83;;;1.23;;
10529;SDS011;5313;48.834;9.228;2022-09-09T09:36:00;2.97;;;1.27;;
10529;SDS011;5313;48.834;9.228;2022-09-09T09:38:28;4.50;;;1.40;;
10529;SDS011;5313;48.834;9.228;2022-09-09T09:40:55;2.97;;;1.23;;
10529;SDS011;5313;48.834;9.228;2022-09-09T09:43:26;2.67;;;0.90;;
10529;SDS011;5313;48.834;9.228;2022-09-09T09:45:54;2.77;;;1.00;;
10529;SDS011;5313;48.834;9.228;2022-09-09T09:48:20;2.97;;;0.83;;
10529;SDS011;5313;48.834;9.228;2022-09-09T09:50:46;4.73;;;0.90;;
10529;SDS011;5313;48.834;9.228;2022-09-09T09:53:25;2.40;;;0.70;;
10529;SDS011;5313;48.834;9.228;2022-09-09T09:55:58;2.20;;;0.70;;
10529;SDS011;5313;48.834;9.228;2022-09-09T09:58:32;1.97;;;0.60;;
10529;SDS011;5313;48.834;9.228;2022-09-09T10:01:03;2.27;;;0.70;;
10529;SDS011;5313;48.834;9.228;2022-09-09T10:05:56;2.90;;;0.70;;
10529;SDS011;5313;48.834;9.228;2022-09-09T10:08:23;1.87;;;0.67;;
10529;SDS011;5313;48.834;9.228;2022-09-09T10:18:52;2.83;;;0.60;;
10529;SDS011;5313;48.834;9.228;2022-09-09T10:24:21;2.93;;;0.70;;
10529;SDS011;5313;48.834;9.228;2022-09-09T10:27:18;2.00;;;0.70;;
10529;SDS011;5313;48.834;9.228;2022-09-09T10:35:43;2.17;;;0.77;;
10529;SDS011;5313;48.834;9.228;2022-09-09T10:38:18;2.60;;;0.97;;
10529;SDS011;5313;48.834;9.228;2022-09-09T10:49:04;1.60;;;1.10;;
10529;SDS011;5313;48.834;9.228;2022-09-09T10:57:17;3.70;;;0.90;;
10529;SDS011;5313;48.834;9.228;2022-09-09T11:03:00;4.07;;;1.10;;
10529;SDS011;5313;48.834;9.228;2022-09-09T11:05:36;2.10;;;1.10;;
10529;SDS011;5313;48.834;9.228;2022-09-09T11:08:14;2.50;;;1.40;;
10529;SDS011;5313;48.834;9.228;2022-09-09T11:10:46;3.43;;;1.10;;
10529;SDS011;5313;48.834;9.228;2022-09-09T11:13:24;3.80;;;1.00;;
10529;SDS011;5313;48.834;9.228;2022-09-09T11:16:21;2.60;;;0.70;;
10529;SDS011;5313;48.834;9.228;2022-09-09T11:18:42;3.40;;;1.07;;
10529;SDS011;5313;48.834;9.228;2022-09-09T11:21:13;3.47;;;0.80;;
10529;SDS011;5313;48.834;9.228;2022-09-09T11:23:47;3.27;;;0.57;;
10529;SDS011;5313;48.834;9.228;2022-09-09T11:26:38;4.07;;;0.90;;
10529;SDS011;5313;48.834;9.228;2022-09-09T11:29:16;2.27;;;0.90;;
10529;SDS011;5313;48.834;9.228;2022-09-09T11:40:07;4.13;;;1.00;;
10529;SDS011;5313;48.834;9.228;2022-09-09T11:42:34;3.90;;;0.90;;
10529;SDS011;5313;48.834;9.228;2022-09-09T11:47:56;3.53;;;0.70;;
10529;SDS011;5313;48.834;9.228;2022-09-09T11:52:49;1.23;;;0.50;;
10529;SDS011;5313;48.834;9.228;2022-09-09T11:55:32;0.90;;;0.50;;
10529;SDS011;5313;48.834;9.228;2022-09-09T11:58:00;2.17;;;0.60;;
10529;SDS011;5313;48.834;9.228;2022-09-09T12:03:06;0.73;;;0.50;;
10529;SDS011;5313;48.834;9.228;2022-09-09T12:06:29;1.67;;;0.50;;
10529;SDS011;5313;48.834;9.228;2022-09-09T12:08:58;1.60;;;0.43;;
10529;SDS011;5313;48.834;9.228;2022-09-09T12:11:51;1.63;;;0.60;;
10529;SDS011;5313;48.834;9.228;2022-09-09T12:14:20;0.60;;;0.47;;
10529;SDS011;5313;48.834;9.228;2022-09-09T12:19:40;0.70;;;0.30;;
10529;SDS011;5313;48.834;9.228;2022-09-09T12:24:49;1.67;;;0.50;;
10529;SDS011;5313;48.834;9.228;2022-09-09T12:27:44;3.50;;;0.50;;
10529;SDS011;5313;48.834;9.228;2022-09-09T12:33:36;2.20;;;0.50;;
10529;SDS011;5313;48.834;9.228;2022-09-09T12:36:10;0.40;;;0.40;;
10529;SDS011;5313;48.834;9.228;2022-09-09T12:38:40;0.73;;;0.37;;
10529;SDS011;5313;48.834;9.228;2022-09-09T12:41:16;1.30;;;0.50;;
10529;SDS011;5313;48.834;9.228;2022-09-09T12:43:46;0.67;;;0.30;;
10529;SDS011;5313;48.834;9.228;2022-09-09T12:46:20;1.60;;;0.60;;
10529;SDS011;5313;48.834;9.228;2022-09-09T12:49:26;1.47;;;0.40;;
10529;SDS011;5313;48.834;9.228;2022-09-09T12:52:00;1.37;;;0.50;;
10529;SDS011;5313;48.834;9.228;2022-09-09T12:54:33;0.83;;;0.40;;
10529;SDS011;5313;48.834;9.228;2022-09-09T12:57:01;1.40;;;0.30;;
10529;SDS011;5313;48.834;9.228;2022-09-09T12:59:34;1.27;;;0.40;;
10529;SDS011;5313;48.834;9.228;2022-09-09T13:02:01;0.70;;;0.30;;
10529;SDS011;5313;48.834;9.228;2022-09-09T13:04:27;1.53;;;0.60;;
10529;SDS011;5313;48.834;9.228;2022-09-09T13:06:53;1.70;;;0.53;;
10529;SDS011;5313;48.834;9.228;2022-09-09T13:09:18;1.50;;;0.40;;
10529;SDS011;5313;48.834;9.228;2022-09-09T13:11:49;2.37;;;0.37;;
10529;SDS011;5313;48.834;9.228;2022-09-09T13:14:18;2.07;;;0.70;;
10529;SDS011;5313;48.834;9.228;2022-09-09T13:16:55;2.07;;;0.50;;
10529;SDS011;5313;48.834;9.228;2022-09-09T13:19:23;1.73;;;0.60;;
10529;SDS011;5313;48.834;9.228;2022-09-09T13:21:52;0.73;;;0.50;;
10529;SDS011;5313;48.834;9.228;2022-09-09T13:26:57;1.53;;;0.70;;
10529;SDS011;5313;48.834;9.228;2022-09-09T13:29:27;1.43;;;0.33;;
10529;SDS011;5313;48.834;9.228;2022-09-09T13:31:53;1.17;;;0.53;;
10529;SDS011;5313;48.834;9.228;2022-09-09T13:34:27;1.97;;;0.60;;
10529;SDS011;5313;48.834;9.228;2022-09-09T13:37:04;1.97;;;0.60;;
10529;SDS011;5313;48.834;9.228;2022-09-09T13:39:34;1.03;;;0.50;;
10529;SDS011;5313;48.834;9.228;2022-09-09T13:42:02;2.83;;;0.80;;
10529;SDS011;5313;48.834;9.228;2022-09-09T13:44:29;1.47;;;0.67;;
10529;SDS011;5313;48.834;9.228;2022-09-09T13:47:03;2.70;;;0.70;;
10529;SDS011;5313;48.834;9.228;2022-09-09T13:49:31;1.67;;;0.60;;
10529;SDS011;5313;48.834;9.228;2022-09-09T13:54:55;1.87;;;0.50;;
10529;SDS011;5313;48.834;9.228;2022-09-09T13:57:23;1.10;;;0.50;;
10529;SDS011;5313;48.834;9.228;2022-09-09T13:59:50;3.17;;;0.60;;
10529;SDS011;5313;48.834;9.228;2022-09-09T14:02:17;3.17;;;0.67;;
10529;SDS011;5313;48.834;9.228;2022-09-09T14:04:43;2.23;;;0.70;;
10529;SDS011;5313;48.834;9.228;2022-09-09T14:07:16;3.57;;;0.60;;
10529;SDS011;5313;48.834;9.228;2022-09-09T14:09:43;2.10;;;0.60;;
10529;SDS011;5313;48.834;9.228;2022-09-09T14:12:10;0.90;;;0.50;;
10529;SDS011;5313;48.834;9.228;2022-09-09T14:14:36;1.03;;;0.37;;
10529;SDS011;5313;48.834;9.228;2022-09-09T14:17:02;1.83;;;0.70;;
10529;SDS011;5313;48.834;9.228;2022-09-09T14:19:28;2.00;;;0.47;;
10529;SDS011;5313;48.834;9.228;2022-09-09T14:21:55;2.07;;;0.50;;
10529;SDS011;5313;48.834;9.228;2022-09-09T14:24:21;2.00;;;0.77;;
10529;SDS011;5313;48.834;9.228;2022-09-09T14:26:47;1.13;;;0.53;;
10529;SDS011;5313;48.834;9.228;2022-09-09T14:29:12;1.20;;;0.43;;
10529;SDS011;5313;48.834;9.228;2022-09-09T14:31:38;1.50;;;0.40;;
10529;SDS011;5313;48.834;9.228;2022-09-09T14:34:03;2.43;;;0.60;;
10529;SDS011;5313;48.834;9.228;2022-09-09T14:36:29;2.03;;;0.40;;
10529;SDS011;5313;48.834;9.228;2022-09-09T14:38:55;1.73;;;0.40;;
10529;SDS011;5313;48.834;9.228;2022-09-09T14:41:20;0.80;;;0.40;;
10529;SDS011;5313;48.834;9.228;2022-09-09T14:43:47;1.47;;;0.50;;
10529;SDS011;5313;48.834;9.228;2022-09-09T14:46:14;7.73;;;0.70;;
10529;SDS011;5313;48.834;9.228;2022-09-09T14:48:40;1.10;;;0.40;;
10529;SDS011;5313;48.834;9.228;2022-09-09T14:51:07;1.57;;;0.60;;
10529;SDS011;5313;48.834;9.228;2022-09-09T14:53:37;1.70;;;0.50;;
10529;SDS011;5313;48.834;9.228;2022-09-09T14:56:08;1.63;;;0.50;;
10529;SDS011;5313;48.834;9.228;2022-09-09T14:58:36;1.73;;;0.63;;
10529;SDS011;5313;48.834;9.228;2022-09-09T15:01:03;0.90;;;0.30;;
10529;SDS011;5313;48.834;9.228;2022-09-09T15:03:30;0.83;;;0.40;;
10529;SDS011;5313;48.834;9.228;2022-09-09T15:05:56;0.37;;;0.30;;
10529;SDS011;5313;48.834;9.228;2022-09-09T15:08:23;1.60;;;0.40;;
10529;SDS011;5313;48.834;9.228;2022-09-09T15:10:49;2.50;;;0.73;;
10529;SDS011;5313;48.834;9.228;2022-09-09T15:13:15;0.83;;;0.50;;
10529;SDS011;5313;48.834;9.228;2022-09-09T15:15:44;0.83;;;0.30;;
10529;SDS011;5313;48.834;9.228;2022-09-09T15:18:09;1.73;;;0.50;;
10529;SDS011;5313;48.834;9.228;2022-09-09T15:20:35;2.00;;;0.77;;
10529;SDS011;5313;48.834;9.228;2022-09-09T15:23:02;1.53;;;0.40;;
10529;SDS011;5313;48.834;9.228;2022-09-09T15:25:27;2.07;;;0.50;;
10529;SDS011;5313;48.834;9.228;2022-09-09T15:27:53;2.03;;;0.50;;
10529;SDS011;5313;48.834;9.228;2022-09-09T15:30:18;1.60;;;0.90;;
10529;SDS011;5313;48.834;9.228;2022-09-09T15:32:44;0.87;;;0.40;;
10529;SDS011;5313;48.834;9.228;2022-09-09T15:35:09;1.23;;;0.57;;
10529;SDS011;5313;48.834;9.228;2022-09-09T15:37:35;2.73;;;0.63;;
10529;SDS011;5313;48.834;9.228;2022-09-09T15:40:00;1.03;;;0.40;;
10529;SDS011;5313;48.834;9.228;2022-09-09T15:42:26;1.23;;;0.40;;
10529;SDS011;5313;48.834;9.228;2022-09-09T15:44:52;1.47;;;0.40;;
10529;SDS011;5313;48.834;9.228;2022-09-09T15:47:17;1.73;;;0.60;;
10529;SDS011;5313;48.834;9.228;2022-09-09T15:49:43;1.63;;;0.43;;
10529;SDS011;5313;48.834;9.228;2022-09-09T15:52:09;2.30;;;0.70;;
10529;SDS011;5313;48.834;9.228;2022-09-09T15:54:36;1.93;;;0.60;;
10529;SDS011;5313;48.834;9.228;2022-09-09T15:57:06;2.13;;;0.60;;
10529;SDS011;5313;48.834;9.228;2022-09-09T15:59:36;2.93;;;0.43;;
10529;SDS011;5313;48.834;9.228;2022-09-09T16:02:01;1.20;;;0.50;;
10529;SDS011;5313;48.834;9.228;2022-09-09T16:04:27;1.47;;;0.43;;
10529;SDS011;5313;48.834;9.228;2022-09-09T16:06:55;0.87;;;0.53;;
10529;SDS011;5313;48.834;9.228;2022-09-09T16:09:26;1.80;;;0.40;;
10529;SDS011;5313;48.834;9.228;2022-09-09T16:11:53;1.33;;;0.40;;
10529;SDS011;5313;48.834;9.228;2022-09-09T16:14:21;1.27;;;0.67;;
10529;SDS011;5313;48.834;9.228;2022-09-09T16:16:46;1.50;;;0.70;;
10529;SDS011;5313;48.834;9.228;2022-09-09T16:19:13;3.23;;;0.80;;
10529;SDS011;5313;48.834;9.228;2022-09-09T16:21:42;1.50;;;0.73;;
10529;SDS011;5313;48.834;9.228;2022-09-09T16:24:10;1.60;;;0.80;;
10529;SDS011;5313;48.834;9.228;2022-09-09T16:26:38;1.33;;;0.60;;
10529;SDS011;5313;48.834;9.228;2022-09-09T16:29:06;2.70;;;0.90;;
10529;SDS011;5313;48.834;9.228;2022-09-09T16:31:31;1.70;;;0.40;;
10529;SDS011;5313;48.834;9.228;2022-09-09T16:33:57;0.60;;;0.23;;
10529;SDS011;5313;48.834;9.228;2022-09-09T16:36:24;1.27;;;0.30;;
10529;SDS011;5313;48.834;9.228;2022-09-09T16:38:54;1.90;;;0.30;;
10529;SDS011;5313;48.834;9.228;2022-09-09T16:41:22;1.30;;;0.20;;
10529;SDS011;5313;48.834;9.228;2022-09-09T16:43:51;1.10;;;0.30;;
10529;SDS011;5313;48.834;9.228;2022-09-09T16:46:31;2.27;;;0.37;;
10529;SDS011;5313;48.834;9.228;2022-09-09T16:48:59;1.13;;;0.20;;
10529;SDS011;5313;48.834;9.228;2022-09-09T16:53:57;1.10;;;0.47;;
10529;SDS011;5313;48.834;9.228;2022-09-09T16:56:26;1.50;;;0.30;;
10529;SDS011;5313;48.834;9.228;2022-09-09T16:58:54;2.27;;;0.50;;
10529;SDS011;5313;48.834;9.228;2022-09-09T17:01:25;0.87;;;0.30;;
10529;SDS011;5313;48.834;9.228;2022-09-09T17:03:56;0.97;;;0.30;;
10529;SDS011;5313;48.834;9.228;2022-09-09T17:06:23;0.67;;;0.33;;
10529;SDS011;5313;48.834;9.228;2022-09-09T17:08:53;1.00;;;0.43;;
10529;SDS011;5313;48.834;9.228;2022-09-09T17:11:20;0.30;;;0.20;;
10529;SDS011;5313;48.834;9.228;2022-09-09T17:13:46;0.57;;;0.33;;
10529;SDS011;5313;48.834;9.228;2022-09-09T17:16:13;0.67;;;0.23;;